Time;durP1;ratioP1;P1;durP2;ratioP2;P2;SDS_P1;SDS_P2;PMS_P1;PMS_P2;Temp;Humidity;BMP_temperature;BMP_pressure;BME280_temperature;BME280_humidity;BME280_pressure;Samples;Min_cycle;Max_cycle;Signal;HPM_P1;HPM_P2
2022/01/30 00:01:09;;;;;;;3.75;1.40;;;;;;;6.09;40.97;93306.75;2068793;69;20516;-69
2022/01/30 00:03:34;;;;;;;2.15;1.42;;;;;;;6.13;40.60;93306.34;2068860;69;20149;-70
2022/01/30 00:06:00;;;;;;;3.67;1.50;;;;;;;5.48;42.19;93275.50;2071638;69;20144;-71
2022/01/30 00:08:26;;;;;;;3.03;1.52;;;;;;;5.75;41.99;93296.06;2071642;69;20141;-69
2022/01/30 00:10:58;;;;;;;4.13;1.50;;;;;;;5.92;41.67;93289.16;2069908;69;20666;-69
2022/01/30 00:13:26;;;;;;;4.57;2.07;;;;;;;5.95;41.66;93274.03;2068349;69;20144;-68
2022/01/30 00:15:54;;;;;;;6.95;3.90;;;;;;;5.75;42.54;93296.06;2068068;69;20712;-70
2022/01/30 00:23:31;;;;;;;1.88;1.17;;;;;;;5.93;44.62;93223.56;2068812;69;20152;-68
2022/01/30 00:25:58;;;;;;;3.05;1.50;;;;;;;5.79;43.60;93226.56;2071696;69;20156;-77
2022/01/30 00:28:26;;;;;;;3.08;1.40;;;;;;;5.99;43.68;93233.19;2071584;69;20152;-69
2022/01/30 00:30:55;;;;;;;1.58;1.27;;;;;;;6.04;43.09;93226.63;2070445;69;20172;-67
2022/01/30 00:33:21;;;;;;;1.88;1.10;;;;;;;6.17;44.11;93220.03;2067926;69;20153;-68
2022/01/30 00:35:49;;;;;;;2.03;1.10;;;;;;;6.05;43.60;93202.25;2068283;69;20611;-68
2022/01/30 00:38:22;;;;;;;1.52;1.00;;;;;;;5.88;45.69;93202.13;2067906;69;20152;-68
2022/01/30 00:40:50;;;;;;;2.47;1.20;;;;;;;5.91;44.55;93212.16;2064834;69;20232;-72
2022/01/30 00:43:16;;;;;;;3.17;1.20;;;;;;;5.84;45.09;93200.47;2064674;69;20167;-68
2022/01/30 00:45:42;;;;;;;3.83;1.40;;;;;;;5.94;44.82;93185.91;2064543;69;20625;-69
2022/01/30 00:48:08;;;;;;;1.73;1.00;;;;;;;5.97;45.47;93157.56;2068020;69;20226;-67
2022/01/30 00:50:34;;;;;;;1.30;0.70;;;;;;;6.01;48.29;93176.75;2064898;69;20148;-68
2022/01/30 00:53:00;;;;;;;2.75;1.27;;;;;;;5.96;46.51;93198.00;2068085;69;20164;-68
2022/01/30 00:55:28;;;;;;;2.38;1.20;;;;;;;6.06;45.77;93182.09;2067928;69;20141;-69
2022/01/30 00:57:55;;;;;;;2.75;1.20;;;;;;;6.11;45.94;93172.75;2064618;69;20157;-68
2022/01/30 01:00:22;;;;;;;1.25;0.90;;;;;;;6.20;45.93;93198.59;2068281;69;20136;-73
2022/01/30 01:02:47;;;;;;;1.45;0.95;;;;;;;6.34;45.93;93183.75;2064600;69;20153;-71
2022/01/30 01:05:14;;;;;;;1.83;0.88;;;;;;;6.44;46.10;93167.06;2068251;69;20230;-71
2022/01/30 01:07:46;;;;;;;3.17;1.00;;;;;;;6.59;46.60;93166.19;2070340;69;20278;-68
2022/01/30 01:23:39;;;;;;;3.60;0.93;;;;;;;6.33;47.68;93187.13;2066990;69;20144;-71
2022/01/30 01:26:08;;;;;;;2.33;0.93;;;;;;;6.39;47.25;93181.28;2067896;69;20140;-71
2022/01/30 01:28:36;;;;;;;2.03;1.00;;;;;;;6.63;46.32;93163.72;2068369;69;20626;-71
2022/01/30 01:31:02;;;;;;;1.48;1.00;;;;;;;6.66;45.76;93165.38;2069016;69;20302;-69
2022/01/30 01:33:52;;;;;;;1.13;0.80;;;;;;;6.68;46.88;93173.91;2067937;69;20144;-73
2022/01/30 01:36:14;;;;;;;2.63;1.00;;;;;;;6.40;46.93;93166.72;2063903;69;20678;-69
2022/01/30 01:38:41;;;;;;;2.72;1.10;;;;;;;6.44;47.67;93172.66;2068810;69;20196;-71
2022/01/30 01:41:07;;;;;;;2.20;1.30;;;;;;;6.52;46.65;93181.72;2071035;69;20235;-68
2022/01/30 01:43:35;;;;;;;2.28;1.20;;;;;;;6.58;46.66;93175.88;2068328;69;20140;-69
2022/01/30 01:46:01;;;;;;;3.08;1.20;;;;;;;6.58;46.37;93159.09;2069783;69;20137;-68
2022/01/30 01:48:32;;;;;;;1.52;1.00;;;;;;;6.67;46.80;93160.50;2067421;69;20165;-68
2022/01/30 01:51:16;;;;;;;2.20;1.05;;;;;;;6.60;46.81;93171.22;2061777;69;20155;-75
2022/01/30 01:53:43;;;;;;;2.15;1.05;;;;;;;6.39;48.20;93187.63;2067740;69;20201;-68
2022/01/30 01:56:09;;;;;;;2.78;1.17;;;;;;;6.54;46.57;93181.88;2064580;69;20528;-69
2022/01/30 01:58:38;;;;;;;1.83;1.00;;;;;;;6.69;47.63;93180.25;2067115;69;20147;-67
2022/01/30 02:01:24;;;;;;;1.17;0.60;;;;;;;6.74;48.70;93176.50;2067823;69;20167;-68
2022/01/30 02:03:50;;;;;;;0.82;0.63;;;;;;;6.89;49.69;93198.72;2064469;69;20228;-67
2022/01/30 02:06:19;;;;;;;0.80;0.80;;;;;;;6.83;48.05;93187.78;2063019;69;20228;-68
2022/01/30 02:08:52;;;;;;;1.70;0.90;;;;;;;6.80;48.59;93188.91;2060566;69;20195;-69
2022/01/30 02:11:43;;;;;;;1.47;0.80;;;;;;;6.83;48.30;93190.56;2060506;69;20229;-74
2022/01/30 02:27:32;;;;;;;0.57;0.50;;;;;;;7.09;49.94;93152.03;2064185;69;20215;-68
2022/01/30 02:29:59;;;;;;;0.55;0.55;;;;;;;7.03;49.82;93159.94;2065205;69;20130;-69
2022/01/30 02:32:25;;;;;;;2.35;0.90;;;;;;;7.03;49.51;93169.09;2061121;69;20240;-74
2022/01/30 02:34:51;;;;;;;0.77;0.60;;;;;;;7.09;49.00;93163.22;2061357;69;20141;-69
2022/01/30 02:37:17;;;;;;;0.60;0.60;;;;;;;7.09;48.95;93166.78;2060409;69;20141;-68
2022/01/30 02:39:43;;;;;;;0.60;0.60;;;;;;;7.10;47.95;93167.50;2060662;69;20245;-70
2022/01/30 02:42:17;;;;;;;0.88;0.80;;;;;;;7.18;49.28;93159.75;2060581;69;20224;-67
2022/01/30 02:44:56;;;;;;;0.73;0.70;;;;;;;7.03;49.56;93165.56;2061210;69;20592;-67
2022/01/30 02:47:41;;;;;;;0.70;0.70;;;;;;;7.07;49.35;93160.28;2066411;69;20196;-69
2022/01/30 02:52:36;;;;;;;0.98;0.65;;;;;;;7.16;49.63;93170.06;2063709;69;20763;-67
2022/01/30 02:55:03;;;;;;;1.13;0.80;;;;;;;7.04;49.45;93170.56;2060967;69;20195;-69
2022/01/30 02:57:29;;;;;;;1.88;0.93;;;;;;;7.11;49.23;93158.53;2063773;69;20137;-69
2022/01/30 02:59:57;;;;;;;1.40;0.80;;;;;;;7.29;48.73;93141.72;2066461;69;20156;-73
2022/01/30 03:02:27;;;;;;;1.55;0.88;;;;;;;7.26;49.58;93149.22;2060657;69;20149;-72
2022/01/30 03:04:52;;;;;;;0.43;0.43;;;;;;;7.26;50.08;93163.22;2061377;69;20156;-75
2022/01/30 03:07:18;;;;;;;1.33;0.90;;;;;;;7.17;48.93;93163.16;2063760;69;20141;-67
2022/01/30 03:09:55;;;;;;;0.85;0.65;;;;;;;7.22;49.03;93153.75;2065099;69;20149;-72
2022/01/30 03:12:22;;;;;;;1.00;0.70;;;;;;;7.14;48.95;93148.97;2065879;69;20192;-67
2022/01/30 03:14:47;;;;;;;1.27;0.70;;;;;;;7.02;50.07;93159.22;2063836;69;20159;-73
2022/01/30 03:17:13;;;;;;;1.00;0.82;;;;;;;7.11;49.50;93155.75;2066465;69;20461;-73
2022/01/30 03:19:39;;;;;;;0.70;0.68;;;;;;;6.96;50.39;93153.09;2060722;69;20533;-72
2022/01/30 03:22:04;;;;;;;0.60;0.40;;;;;;;7.20;49.25;93145.94;2061811;69;20268;-71
2022/01/30 03:24:35;;;;;;;0.25;0.25;;;;;;;7.68;47.09;93133.56;2059762;69;20226;-68
2022/01/30 03:27:11;;;;;;;0.55;0.50;;;;;;;7.22;48.75;93139.75;2063910;69;20165;-69
2022/01/30 03:29:50;;;;;;;1.30;1.00;;;;;;;7.28;48.79;93157.03;2062049;69;20199;-68
2022/01/30 03:32:26;;;;;;;1.00;0.90;;;;;;;7.22;48.38;93165.69;2063780;69;20157;-69
2022/01/30 03:34:52;;;;;;;0.95;0.82;;;;;;;7.21;49.02;93155.09;2063906;69;20149;-69
2022/01/30 03:37:17;;;;;;;0.70;0.70;;;;;;;7.32;48.74;93169.31;2064204;69;20153;-68
2022/01/30 03:39:43;;;;;;;1.15;0.73;;;;;;;6.99;49.38;93159.63;2064178;69;20151;-69
2022/01/30 03:42:10;;;;;;;1.48;0.73;;;;;;;6.87;50.41;93145.38;2061577;69;20145;-68
2022/01/30 03:44:36;;;;;;;0.52;0.52;;;;;;;6.56;51.27;93154.09;2063065;69;20233;-70
2022/01/30 03:47:02;;;;;;;1.25;0.82;;;;;;;6.83;50.39;93165.38;2063984;69;20169;-68
2022/01/30 03:49:29;;;;;;;1.33;1.00;;;;;;;6.93;50.28;93170.34;2061302;69;20207;-69
2022/01/30 03:51:55;;;;;;;0.93;0.93;;;;;;;7.05;49.09;93162.91;2061209;69;20669;-68
2022/01/30 03:54:29;;;;;;;1.23;1.13;;;;;;;6.95;49.58;93150.88;2061048;69;20226;-68
2022/01/30 03:56:54;;;;;;;3.03;1.00;;;;;;;6.31;52.30;93167.38;2061441;69;20160;-72
2022/01/30 03:59:24;;;;;;;1.10;1.00;;;;;;;6.63;51.74;93170.03;2061131;69;20134;-73
2022/01/30 04:01:50;;;;;;;0.70;0.70;;;;;;;6.86;50.26;93158.63;2060944;69;20157;-74
2022/01/30 04:04:16;;;;;;;1.05;0.70;;;;;;;6.98;50.46;93169.34;2063421;69;20180;-68
2022/01/30 04:06:42;;;;;;;0.60;0.60;;;;;;;6.80;50.49;93151.81;2061855;69;20552;-67
2022/01/30 04:09:31;;;;;;;1.35;0.80;;;;;;;6.78;50.96;93160.00;2060299;69;20258;-67
2022/01/30 04:12:12;;;;;;;1.40;0.90;;;;;;;6.67;50.56;93155.66;2067111;69;20196;-67
2022/01/30 04:15:08;;;;;;;2.00;1.27;;;;;;;6.78;49.60;93171.97;2063252;69;20651;-74
2022/01/30 04:18:07;;;;;;;0.75;0.70;;;;;;;6.70;50.08;93168.50;2059647;69;20223;-67
2022/01/30 04:20:35;;;;;;;2.10;1.00;;;;;;;6.70;50.57;93157.31;2060814;69;20157;-73
2022/01/30 04:23:16;;;;;;;0.80;0.80;;;;;;;6.83;50.43;93159.06;2063874;69;20177;-74
2022/01/30 04:26:08;;;;;;;1.27;0.95;;;;;;;6.42;51.96;93171.75;2062912;69;20236;-68
2022/01/30 04:28:52;;;;;;;2.03;1.13;;;;;;;6.50;51.85;93161.97;2064313;69;20172;-68
2022/01/30 04:31:38;;;;;;;1.55;1.00;;;;;;;6.43;51.69;93165.59;2063420;69;20299;-70
2022/01/30 04:34:28;;;;;;;2.30;1.00;;;;;;;6.57;50.87;93163.97;2060432;69;20260;-68
2022/01/30 04:38:14;;;;;;;0.95;0.68;;;;;;;6.80;49.90;93163.00;2063956;69;20244;-68
2022/01/30 05:05:24;;;;;;;4.03;2.40;;;;;;;6.51;50.50;93168.31;2063142;69;20159;-68
2022/01/30 05:07:34;;;;;;;4.22;1.90;;;;;;;6.70;50.22;93157.31;2066922;69;20237;-68
2022/01/30 05:10:06;;;;;;;2.50;1.45;;;;;;;6.58;50.27;93156.31;2068413;69;20148;-69
2022/01/30 05:12:57;;;;;;;1.65;1.00;;;;;;;6.68;49.71;93159.19;2064422;69;20187;-72
2022/01/30 05:15:23;;;;;;;0.85;0.70;;;;;;;6.83;48.99;93159.06;2068122;69;20179;-69
2022/01/30 05:18:08;;;;;;;1.67;0.75;;;;;;;6.86;48.78;93164.22;2067724;69;20133;-69
2022/01/30 05:20:53;;;;;;;0.20;0.20;;;;;;;6.90;48.59;93161.00;2068286;69;20205;-73
2022/01/30 05:23:30;;;;;;;0.15;0.10;;;;;;;7.12;47.24;93168.44;2067790;69;20248;-73
2022/01/30 05:26:08;;;;;;;0.20;0.20;;;;;;;7.10;47.23;93159.09;2067608;69;20136;-69
2022/01/30 05:28:39;;;;;;;0.20;0.20;;;;;;;7.49;45.53;93165.75;2064587;69;20215;-68
2022/01/30 05:31:25;;;;;;;0.10;0.10;;;;;;;7.38;45.66;93169.81;2066217;69;20148;-70
2022/01/30 05:34:10;;;;;;;0.30;0.30;;;;;;;7.46;45.93;93166.88;2067931;69;20163;-75
2022/01/30 05:36:56;;;;;;;0.20;0.20;;;;;;;7.42;45.63;93171.44;2068290;69;20217;-71
2022/01/30 05:39:40;;;;;;;0.15;0.15;;;;;;;7.53;45.21;93168.88;2068194;69;20214;-71
2022/01/30 05:42:39;;;;;;;0.32;0.20;;;;;;;7.98;42.74;93169.56;2061943;69;20144;-68
2022/01/30 05:45:30;;;;;;;0.20;0.20;;;;;;;8.04;42.75;93183.31;2067554;69;20137;-68
2022/01/30 05:48:29;;;;;;;0.10;0.10;;;;;;;7.66;44.09;93192.25;2062129;69;20179;-68
2022/01/30 05:50:59;;;;;;;0.10;0.10;;;;;;;7.79;43.57;93175.81;2064734;69;20152;-68
2022/01/30 05:53:42;;;;;;;0.15;0.15;;;;;;;8.08;42.38;93183.63;2067398;69;20692;-68
2022/01/30 05:56:17;;;;;;;0.10;0.10;;;;;;;8.07;42.75;93184.94;2064648;69;20233;-68
2022/01/30 05:58:43;;;;;;;0.20;0.20;;;;;;;7.91;43.33;93190.03;2064891;69;20231;-68
2022/01/30 06:01:29;;;;;;;0.32;0.22;;;;;;;8.02;43.71;93203.53;2067987;69;20144;-69
2022/01/30 06:04:07;;;;;;;0.45;0.30;;;;;;;8.13;43.01;93210.66;2064455;69;20148;-68
2022/01/30 06:06:32;;;;;;;0.20;0.17;;;;;;;8.01;43.59;93206.88;2064452;69;20151;-69
2022/01/30 06:09:18;;;;;;;0.15;0.15;;;;;;;8.29;42.07;93217.53;2064384;69;20192;-68
2022/01/30 06:11:49;;;;;;;0.15;0.15;;;;;;;8.19;43.15;93227.94;2067275;69;20592;-68
2022/01/30 06:14:16;;;;;;;0.35;0.20;;;;;;;8.08;43.99;93226.41;2067432;69;20194;-68
2022/01/30 06:16:43;;;;;;;0.20;0.20;;;;;;;8.10;43.09;93234.97;2064259;69;20287;-68
2022/01/30 06:19:28;;;;;;;0.30;0.30;;;;;;;8.23;42.57;93231.06;2067837;69;20152;-69
2022/01/30 06:22:29;;;;;;;0.73;0.13;;;;;;;8.46;40.98;93236.38;2057404;69;20164;-68
2022/01/30 06:25:14;;;;;;;0.10;0.10;;;;;;;8.54;41.23;93233.44;2067277;69;20234;-69
2022/01/30 06:27:58;;;;;;;0.20;0.20;;;;;;;8.54;41.74;93231.38;2068406;69;20304;-69
2022/01/30 06:30:42;;;;;;;0.10;0.10;;;;;;;8.43;42.03;93239.59;2068305;69;20180;-70
2022/01/30 06:33:34;;;;;;;0.20;0.20;;;;;;;8.25;43.40;93245.25;2064077;69;20530;-70
2022/01/30 06:36:18;;;;;;;0.28;0.20;;;;;;;8.33;42.89;93242.34;2068139;69;20680;-74
2022/01/30 06:38:53;;;;;;;0.35;0.20;;;;;;;8.27;43.17;93253.09;2067723;69;20184;-71
2022/01/30 06:41:57;;;;;;;0.28;0.10;;;;;;;8.47;41.54;93256.75;2057265;69;20165;-69
2022/01/30 06:44:43;;;;;;;0.20;0.20;;;;;;;8.39;43.20;93252.00;2057755;69;20241;-70
2022/01/30 06:47:42;;;;;;;0.20;0.20;;;;;;;8.31;42.51;93259.03;2059995;69;20155;-69
2022/01/30 06:50:27;;;;;;;0.15;0.10;;;;;;;8.32;43.08;93261.22;2068657;69;20192;-71
2022/01/30 06:53:28;;;;;;;0.32;0.20;;;;;;;8.28;44.20;93257.38;2057714;69;20164;-70
2022/01/30 06:56:22;;;;;;;0.35;0.20;;;;;;;8.36;43.29;93269.22;2068439;69;20178;-68
2022/01/30 06:59:07;;;;;;;0.63;0.30;;;;;;;8.30;43.28;93266.69;2068729;69;20148;-68
2022/01/30 07:01:52;;;;;;;1.17;0.30;;;;;;;8.49;42.72;93262.53;2068874;69;20140;-69
2022/01/30 07:04:36;;;;;;;0.30;0.30;;;;;;;8.43;42.69;93270.47;2065825;69;20512;-69
2022/01/30 07:07:03;;;;;;;0.20;0.20;;;;;;;8.35;43.80;93288.13;2068886;69;20172;-69
2022/01/30 07:09:30;;;;;;;0.38;0.20;;;;;;;8.37;43.57;93279.16;2068910;69;20509;-69
2022/01/30 07:11:56;;;;;;;2.78;0.50;;;;;;;8.27;43.27;93276.25;2068856;69;20148;-71
2022/01/30 07:14:22;;;;;;;0.55;0.30;;;;;;;8.31;43.68;93273.78;2065511;69;20176;-73
2022/01/30 07:16:47;;;;;;;0.60;0.40;;;;;;;8.41;43.42;93287.88;2068687;69;20148;-75
2022/01/30 07:19:13;;;;;;;0.30;0.30;;;;;;;8.42;43.65;93292.16;2065233;69;20259;-71
2022/01/30 07:21:39;;;;;;;0.45;0.40;;;;;;;8.47;43.72;93282.00;2068803;69;20151;-69
2022/01/30 07:24:05;;;;;;;0.73;0.32;;;;;;;8.45;43.17;93291.00;2068756;69;20141;-69
2022/01/30 07:26:32;;;;;;;0.30;0.30;;;;;;;8.50;43.80;93300.47;2068654;69;20224;-71
2022/01/30 07:28:58;;;;;;;1.77;0.30;;;;;;;8.42;42.79;93303.38;2068660;69;20140;-75
2022/01/30 07:31:24;;;;;;;0.22;0.17;;;;;;;8.85;39.43;93303.88;2068772;69;20654;-69
2022/01/30 07:33:50;;;;;;;0.20;0.20;;;;;;;9.03;39.10;93301.72;2068610;69;20141;-68
2022/01/30 07:36:15;;;;;;;2.60;1.00;;;;;;;8.88;40.39;93311.13;2068429;69;20143;-71
2022/01/30 07:38:41;;;;;;;3.60;1.55;;;;;;;8.79;40.68;93303.41;2068581;69;20138;-68
2022/01/30 07:41:08;;;;;;;1.67;1.00;;;;;;;8.89;40.73;93301.41;2068796;69;20152;-71
2022/01/30 07:43:34;;;;;;;3.63;1.13;;;;;;;8.93;40.61;93295.31;2068688;69;20615;-72
2022/01/30 07:46:05;;;;;;;2.95;1.10;;;;;;;9.02;40.65;93303.78;2065213;69;20161;-75
2022/01/30 07:48:32;;;;;;;0.75;0.40;;;;;;;9.00;42.16;93302.91;2068655;69;20228;-71
2022/01/30 07:50:58;;;;;;;0.20;0.20;;;;;;;9.04;40.65;93308.81;2068516;69;20527;-71
2022/01/30 07:53:23;;;;;;;0.10;0.10;;;;;;;9.13;41.01;93317.28;2068588;69;20232;-73
2022/01/30 07:55:49;;;;;;;0.32;0.20;;;;;;;9.12;40.71;93321.41;2068190;69;20215;-71
2022/01/30 07:58:14;;;;;;;0.55;0.40;;;;;;;9.24;41.01;93324.41;2068623;69;20155;-70
2022/01/30 08:00:40;;;;;;;1.35;0.35;;;;;;;9.25;41.70;93331.50;2067945;69;20149;-72
2022/01/30 08:03:06;;;;;;;0.50;0.40;;;;;;;9.22;39.82;93324.25;2068528;69;20133;-73
2022/01/30 08:05:31;;;;;;;0.43;0.43;;;;;;;9.37;39.29;93323.97;2068477;69;20151;-73
2022/01/30 08:07:57;;;;;;;1.17;0.30;;;;;;;9.31;40.44;93322.81;2068542;69;20141;-70
2022/01/30 08:10:23;;;;;;;0.10;0.10;;;;;;;9.36;39.18;93319.69;2068687;69;20222;-69
2022/01/30 08:12:49;;;;;;;0.98;0.55;;;;;;;9.31;38.96;93329.16;2068590;69;20568;-71
2022/01/30 08:15:14;;;;;;;2.78;1.75;;;;;;;9.22;40.17;93324.25;2068535;69;20173;-75
2022/01/30 08:17:40;;;;;;;1.38;0.95;;;;;;;9.27;39.84;93330.91;2068487;69;20610;-72
2022/01/30 08:20:07;;;;;;;3.33;1.45;;;;;;;9.13;40.13;93322.16;2068399;69;20547;-76
2022/01/30 08:22:49;;;;;;;2.03;0.60;;;;;;;9.20;39.52;93320.53;2065264;69;20255;-75
2022/01/30 08:25:20;;;;;;;0.30;0.30;;;;;;;9.07;39.18;93308.41;2068621;69;20152;-72
2022/01/30 08:27:48;;;;;;;0.60;0.25;;;;;;;9.23;39.24;93314.50;2068632;69;20158;-72
2022/01/30 08:30:14;;;;;;;0.20;0.20;;;;;;;9.27;38.92;93312.00;2068507;69;20184;-72
2022/01/30 08:32:45;;;;;;;0.30;0.30;;;;;;;9.32;38.60;93324.28;2068493;69;20259;-69
2022/01/30 08:35:13;;;;;;;1.38;0.60;;;;;;;9.37;38.60;93326.78;2068339;69;20159;-70
2022/01/30 08:37:39;;;;;;;1.70;0.30;;;;;;;9.26;38.94;93312.59;2068483;69;20145;-72
2022/01/30 08:40:16;;;;;;;0.57;0.45;;;;;;;9.37;38.31;93317.63;2068496;69;20167;-69
2022/01/30 08:42:43;;;;;;;1.20;0.63;;;;;;;9.62;39.29;93314.53;2068541;69;20288;-71
2022/01/30 08:45:09;;;;;;;0.85;0.55;;;;;;;9.65;39.50;93310.56;2068488;69;20155;-70
2022/01/30 08:47:36;;;;;;;0.68;0.30;;;;;;;10.33;37.41;93305.66;2068509;69;20635;-71
2022/01/30 08:50:04;;;;;;;2.58;0.30;;;;;;;10.63;36.25;93314.81;2068447;69;20160;-72
2022/01/30 08:52:29;;;;;;;0.20;0.20;;;;;;;10.98;33.67;93320.72;2068475;69;20148;-69
2022/01/30 08:54:55;;;;;;;0.15;0.15;;;;;;;11.29;34.52;93329.19;2068527;69;20232;-70
2022/01/30 08:57:21;;;;;;;0.30;0.20;;;;;;;11.66;32.51;93326.75;2069024;69;20145;-69
2022/01/30 08:59:46;;;;;;;0.20;0.10;;;;;;;11.80;33.12;93314.94;2068637;69;20183;-77
2022/01/30 09:02:12;;;;;;;0.13;0.13;;;;;;;11.94;33.77;93324.38;2068471;69;20206;-72
2022/01/30 09:04:38;;;;;;;2.83;0.20;;;;;;;12.44;31.39;93315.59;2068342;69;20156;-76
2022/01/30 09:07:04;;;;;;;0.47;0.20;;;;;;;12.29;32.95;93313.25;2068258;69;20218;-76
2022/01/30 09:09:30;;;;;;;0.63;0.30;;;;;;;12.83;31.11;93329.34;2068497;69;20191;-74
2022/01/30 09:11:59;;;;;;;1.65;0.10;;;;;;;12.62;32.21;93315.28;2068684;69;20195;-76
2022/01/30 09:14:26;;;;;;;0.28;0.22;;;;;;;12.66;31.71;93316.28;2068805;69;20588;-77
2022/01/30 09:16:52;;;;;;;0.10;0.10;;;;;;;13.24;32.12;93320.56;2068625;69;20140;-72
2022/01/30 09:19:18;;;;;;;0.30;0.22;;;;;;;12.92;30.79;93310.78;2065034;69;20141;-72
2022/01/30 09:21:44;;;;;;;0.40;0.20;;;;;;;13.45;31.34;93326.09;2068457;69;20620;-70
2022/01/30 09:24:10;;;;;;;0.80;0.10;;;;;;;13.54;29.61;93329.41;2068490;69;20140;-70
2022/01/30 09:26:35;;;;;;;0.35;0.10;;;;;;;13.32;31.04;93343.66;2068543;69;20198;-71
2022/01/30 09:29:01;;;;;;;0.10;0.10;;;;;;;13.62;29.52;93332.72;2068487;69;20191;-77
2022/01/30 09:31:26;;;;;;;1.35;0.10;;;;;;;13.67;27.74;93338.00;2067844;69;20153;-74
2022/01/30 09:33:52;;;;;;;0.10;0.10;;;;;;;13.95;29.27;93343.84;2068452;69;20161;-74
2022/01/30 09:36:18;;;;;;;1.45;0.10;;;;;;;13.91;29.11;93338.69;2068330;69;20144;-74
2022/01/30 09:38:43;;;;;;;0.00;0.00;;;;;;;14.16;29.00;93323.88;2068378;69;20146;-77
2022/01/30 09:41:09;;;;;;;0.22;0.13;;;;;;;14.56;28.46;93350.19;2065056;69;20160;-76
2022/01/30 09:43:35;;;;;;;0.10;0.10;;;;;;;14.33;28.68;93336.84;2068320;69;20144;-73
2022/01/30 09:46:02;;;;;;;0.13;0.10;;;;;;;14.45;27.79;93342.47;2065075;69;20210;-76
2022/01/30 09:48:28;;;;;;;0.63;0.20;;;;;;;14.42;27.21;93341.63;2068308;69;20200;-77
2022/01/30 09:50:55;;;;;;;0.10;0.10;;;;;;;15.07;27.55;93357.94;2067710;69;20145;-74
2022/01/30 09:53:20;;;;;;;0.10;0.10;;;;;;;15.18;26.90;93340.13;2068356;69;20152;-70
2022/01/30 09:55:46;;;;;;;0.22;0.17;;;;;;;15.74;27.65;93356.63;2068269;69;20137;-71
2022/01/30 09:58:12;;;;;;;0.10;0.10;;;;;;;15.15;26.25;93347.06;2068457;69;20155;-71
2022/01/30 10:00:37;;;;;;;2.47;0.30;;;;;;;15.30;26.38;93343.59;2068301;69;20152;-76
2022/01/30 10:03:03;;;;;;;1.25;0.10;;;;;;;15.77;27.46;93337.59;2068390;69;20689;-73
2022/01/30 10:05:33;;;;;;;0.20;0.10;;;;;;;16.31;27.55;93338.16;2064917;69;20244;-76
2022/01/30 10:07:59;;;;;;;0.20;0.10;;;;;;;15.91;26.65;93343.28;2061676;69;20176;-73
2022/01/30 10:10:28;;;;;;;0.20;0.17;;;;;;;16.46;27.22;93349.59;2061689;69;20172;-71
2022/01/30 10:13:08;;;;;;;0.17;0.17;;;;;;;16.83;25.90;93359.94;2061635;69;20583;-70
2022/01/30 10:16:04;;;;;;;0.10;0.10;;;;;;;16.91;25.84;93356.75;2061573;69;20518;-70
2022/01/30 10:18:32;;;;;;;0.60;0.10;;;;;;;16.36;25.59;93359.72;2061129;69;20604;-73
2022/01/30 10:20:59;;;;;;;0.13;0.10;;;;;;;17.38;24.88;93351.13;2061541;69;20149;-74
2022/01/30 10:23:35;;;;;;;0.20;0.20;;;;;;;17.19;24.40;93357.34;2061616;69;20148;-71
2022/01/30 10:26:07;;;;;;;0.55;0.17;;;;;;;16.57;24.26;93358.63;2061708;69;20164;-72
2022/01/30 10:28:35;;;;;;;0.20;0.20;;;;;;;16.32;25.47;93356.69;2061669;69;20595;-70
2022/01/30 10:31:05;;;;;;;0.17;0.10;;;;;;;15.76;24.33;93367.34;2061601;69;20268;-72
2022/01/30 10:33:38;;;;;;;0.10;0.10;;;;;;;16.17;24.76;93363.75;2061722;69;20597;-71
2022/01/30 10:36:04;;;;;;;;;;;;;;;17.52;24.16;93359.56;2061546;69;20157;-70
2022/01/30 10:38:35;;;;;;;0.93;0.43;;;;;;;17.14;22.79;93352.84;2063790;69;20119;-71
2022/01/30 10:41:20;;;;;;;0.20;0.20;;;;;;;17.60;23.03;93347.84;2061680;69;20149;-70
2022/01/30 10:44:00;;;;;;;0.10;0.10;;;;;;;17.63;23.57;93346.53;2061549;69;20233;-71
2022/01/30 10:46:33;;;;;;;0.20;0.15;;;;;;;17.35;23.00;93357.34;2061547;69;20180;-71
2022/01/30 10:49:07;;;;;;;0.10;0.10;;;;;;;17.72;22.83;93345.50;2061600;69;20141;-74
2022/01/30 10:51:33;;;;;;;0.65;0.20;;;;;;;17.18;22.72;93353.00;2063791;69;20728;-73
2022/01/30 10:54:06;;;;;;;0.35;0.10;;;;;;;16.38;22.55;93352.03;2061580;69;20149;-72
2022/01/30 10:56:32;;;;;;;;;;;;;;;16.45;24.15;93338.88;2061790;69;20716;-73
2022/01/30 10:59:24;;;;;;;0.80;0.22;;;;;;;17.35;22.62;93345.97;2061529;69;20038;-71
2022/01/30 11:01:52;;;;;;;0.30;0.28;;;;;;;18.70;21.40;93339.06;2061637;69;20172;-76
2022/01/30 11:04:25;;;;;;;0.40;0.20;;;;;;;18.63;22.11;93339.44;2061395;69;20562;-74
2022/01/30 11:06:52;;;;;;;0.55;0.10;;;;;;;18.96;21.68;93330.09;2064962;69;20151;-71
2022/01/30 11:10:04;;;;;;;0.30;0.30;;;;;;;19.80;19.52;93326.19;2068203;69;20349;-75
2022/01/30 11:12:15;;;;;;;0.63;0.20;;;;;;;21.57;19.17;93327.75;2067056;69;20281;-72
2022/01/30 11:17:19;;;;;;;0.00;0.00;;;;;;;20.62;18.85;93323.34;2068165;69;20149;-71
2022/01/30 11:19:52;;;;;;;0.25;0.10;;;;;;;19.64;18.00;93322.00;2068118;69;20148;-77
2022/01/30 11:22:23;;;;;;;0.28;0.20;;;;;;;21.64;17.76;93334.44;2064847;69;20214;-77
2022/01/30 11:24:58;;;;;;;0.47;0.47;;;;;;;25.68;17.70;93326.88;2068279;69;20144;-77
2022/01/30 11:27:23;;;;;;;1.45;1.00;;;;;;;27.76;16.30;93331.25;2068379;69;20164;-71
2022/01/30 11:29:51;;;;;;;1.10;1.00;;;;;;;27.83;14.63;93330.56;2068466;69;20163;-72
2022/01/30 11:32:22;;;;;;;0.70;0.70;;;;;;;28.17;14.70;93337.97;2068611;69;20164;-76
2022/01/30 11:34:48;;;;;;;0.73;0.50;;;;;;;28.32;14.47;93348.19;2068506;69;20141;-74
2022/01/30 11:37:16;;;;;;;1.60;0.38;;;;;;;26.40;14.60;93339.34;2068735;69;20153;-74
2022/01/30 11:39:45;;;;;;;4.50;2.97;;;;;;;26.86;14.18;93339.16;2068614;69;20485;-74
2022/01/30 11:42:23;;;;;;;0.50;0.38;;;;;;;27.86;13.07;93325.53;2068635;69;20152;-77
2022/01/30 11:45:10;;;;;;;1.17;1.08;;;;;;;27.16;13.25;93323.56;2068626;69;20171;-74
2022/01/30 11:47:49;;;;;;;0.75;0.70;;;;;;;29.35;13.86;93315.13;2068632;69;20171;-74
2022/01/30 11:50:26;;;;;;;0.88;0.60;;;;;;;30.28;12.91;93325.19;2068457;69;20137;-74
2022/01/30 11:52:59;;;;;;;1.17;0.88;;;;;;;30.60;13.54;93330.13;2068558;69;20144;-71
2022/01/30 11:55:50;;;;;;;0.50;0.50;;;;;;;31.51;12.71;93328.16;2068514;69;20231;-73
2022/01/30 11:58:38;;;;;;;0.77;0.70;;;;;;;31.40;13.52;93317.34;2068564;69;20186;-74
2022/01/30 12:01:04;;;;;;;0.40;0.20;;;;;;;31.24;12.38;93315.97;2068585;69;20177;-74
2022/01/30 12:03:37;;;;;;;0.50;0.40;;;;;;;28.71;12.17;93309.97;2068572;69;20151;-73
2022/01/30 12:06:21;;;;;;;2.38;0.73;;;;;;;30.50;12.80;93317.84;2068415;69;20531;-70
2022/01/30 12:08:51;;;;;;;2.17;1.70;;;;;;;30.18;13.18;93313.59;2068543;69;20584;-75
2022/01/30 12:11:43;;;;;;;4.05;2.50;;;;;;;28.25;13.58;93300.41;2065286;69;20140;-74
2022/01/30 12:14:21;;;;;;;5.85;3.90;;;;;;;25.27;16.01;93297.44;2068665;69;20143;-75
2022/01/30 12:16:49;;;;;;;3.38;2.67;;;;;;;23.74;16.82;93293.91;2065262;69;20144;-72
2022/01/30 12:19:45;;;;;;;2.40;1.10;;;;;;;23.42;16.92;93291.75;2068428;69;20539;-72
2022/01/30 12:22:17;;;;;;;2.47;1.48;;;;;;;20.89;18.67;93282.03;2068538;69;20163;-70
2022/01/30 12:24:45;;;;;;;3.35;1.67;;;;;;;20.41;18.32;93273.28;2068570;69;20171;-72
2022/01/30 12:27:11;;;;;;;3.45;2.00;;;;;;;18.12;20.38;93288.88;2068508;69;20574;-78
2022/01/30 12:29:39;;;;;;;2.80;1.50;;;;;;;18.77;20.69;93283.72;2068537;69;20152;-70
2022/01/30 12:32:31;;;;;;;2.08;1.20;;;;;;;18.78;20.06;93281.59;2068564;69;20152;-70
2022/01/30 12:34:56;;;;;;;4.32;1.38;;;;;;;18.41;19.52;93277.25;2067497;69;20184;-70
2022/01/30 12:37:32;;;;;;;1.17;0.90;;;;;;;17.91;19.84;93270.19;2068492;69;20560;-69
2022/01/30 12:40:01;;;;;;;8.52;1.30;;;;;;;17.20;21.84;93270.63;2068511;69;20133;-69
2022/01/30 12:42:32;;;;;;;6.20;1.75;;;;;;;16.98;22.95;93273.16;2068481;69;20643;-70
2022/01/30 12:45:03;;;;;;;3.03;1.08;;;;;;;16.86;22.89;93264.06;2068516;69;20140;-70
2022/01/30 12:47:29;;;;;;;1.13;0.80;;;;;;;16.17;23.40;93250.88;2068497;69;20145;-71
2022/01/30 12:49:58;;;;;;;1.13;0.80;;;;;;;15.71;21.51;93250.03;2068399;69;20132;-69
2022/01/30 12:52:36;;;;;;;3.08;1.45;;;;;;;15.39;22.48;93251.88;2068491;69;20175;-69
2022/01/30 12:55:10;;;;;;;2.03;1.08;;;;;;;15.54;22.72;93252.66;2068430;69;20232;-69
2022/01/30 12:57:36;;;;;;;2.17;0.90;;;;;;;14.99;22.77;93256.94;2068423;69;20214;-69
2022/01/30 13:00:05;;;;;;;0.93;0.60;;;;;;;15.12;22.30;93251.88;2068640;69;20194;-71
2022/01/30 13:02:36;;;;;;;4.63;0.60;;;;;;;14.95;25.68;93245.38;2068901;69;20206;-76
2022/01/30 13:05:08;;;;;;;0.40;0.40;;;;;;;14.92;24.56;93231.69;2069821;69;20581;-73